Time;durP1;ratioP1;P1;durP2;ratioP2;P2;SDS_P1;SDS_P2;PMS_P1;PMS_P2;Temp;Humidity;BMP_temperature;BMP_pressure;BME280_temperature;BME280_humidity;BME280_pressure;Samples;Min_cycle;Max_cycle;Signal;HPM_P1;HPM_P2
2022/11/13 00:01:19;;;;;;;16.40;10.70;;;;;;;-143.84;94.17;45228.06;5112355;28;20445;-75
2022/11/13 00:03:46;;;;;;;13.97;10.60;;;;;;;-143.84;94.27;45228.06;5112374;28;20526;-74
2022/11/13 00:06:17;;;;;;;13.67;9.03;;;;;;;-143.84;94.06;45224.25;5112600;28;20484;-75
2022/11/13 00:08:44;;;;;;;13.33;10.80;;;;;;;-143.84;93.91;45226.16;5112322;28;20445;-75
2022/11/13 00:11:14;;;;;;;17.33;11.30;;;;;;;-143.84;94.03;45210.94;5112131;28;20865;-75
2022/11/13 00:13:42;;;;;;;22.83;11.17;;;;;;;-143.84;93.67;45209.03;5112894;28;20511;-75
2022/11/13 00:16:12;;;;;;;15.13;11.00;;;;;;;-143.84;93.48;45205.22;5112420;28;20449;-75
2022/11/13 00:18:39;;;;;;;13.73;10.40;;;;;;;-143.84;93.49;45243.31;5112556;28;20518;-75
2022/11/13 00:21:07;;;;;;;14.90;10.10;;;;;;;-143.84;93.16;45229.97;5111703;28;20880;-72
2022/11/13 00:23:37;;;;;;;12.77;10.73;;;;;;;-143.84;93.42;45214.72;5112171;28;20975;-72
2022/11/13 00:26:05;;;;;;;10.53;9.37;;;;;;;-143.84;93.25;45222.34;5112279;28;20457;-75
2022/11/13 00:28:33;;;;;;;14.63;9.97;;;;;;;-143.84;93.35;45214.72;5112277;28;20435;-75
2022/11/13 00:31:01;;;;;;;14.50;10.07;;;;;;;-143.84;93.60;45224.25;5111914;28;21008;-75
2022/11/13 00:33:28;;;;;;;11.57;9.10;;;;;;;-143.84;93.25;45226.16;5120791;27;20469;-74
2022/11/13 00:36:02;;;;;;;14.43;9.60;;;;;;;-143.84;93.16;45220.44;5119484;27;20489;-72
2022/11/13 00:38:29;;;;;;;15.07;10.17;;;;;;;-143.84;93.01;45209.03;5111760;28;20431;-71
2022/11/13 00:40:58;;;;;;;10.77;9.07;;;;;;;-143.84;93.11;45228.06;5111897;28;20446;-71
2022/11/13 00:43:25;;;;;;;11.67;9.50;;;;;;;-143.84;93.11;45218.53;5112218;28;20450;-74
2022/11/13 00:45:53;;;;;;;15.13;9.80;;;;;;;-143.84;93.12;45231.88;5112070;28;20949;-75
2022/11/13 00:48:20;;;;;;;15.23;10.60;;;;;;;-143.84;93.29;45216.63;5112178;28;20857;-74
2022/11/13 00:50:47;;;;;;;15.20;11.23;;;;;;;-143.84;93.45;45218.53;5111498;28;20478;-74
2022/11/13 00:53:15;;;;;;;13.20;9.50;;;;;;;-143.84;93.54;45226.16;5112116;28;20439;-74
2022/11/13 00:55:43;;;;;;;13.83;10.37;;;;;;;-143.84;93.60;45245.19;5111322;28;20439;-74
2022/11/13 00:58:12;;;;;;;15.10;9.77;;;;;;;-143.84;93.63;45224.25;5111249;28;20482;-74
2022/11/13 01:00:40;;;;;;;13.30;10.03;;;;;;;-143.84;93.85;45247.09;5110402;28;20521;-74
2022/11/13 01:03:07;;;;;;;19.47;9.03;;;;;;;-143.84;94.08;45228.06;5110809;28;20864;-75
2022/11/13 01:05:36;;;;;;;11.63;8.87;;;;;;;-143.84;93.73;45212.84;5111315;28;20442;-75
2022/11/13 01:08:04;;;;;;;13.57;10.30;;;;;;;-143.84;93.85;45205.22;5111331;28;20438;-75
2022/11/13 01:10:31;;;;;;;12.07;9.80;;;;;;;-143.84;93.91;45205.22;5111595;28;20486;-75
2022/11/13 01:12:58;;;;;;;10.63;9.53;;;;;;;-143.84;94.02;45224.25;5110748;28;20452;-75
2022/11/13 01:15:27;;;;;;;11.63;9.83;;;;;;;-143.84;93.63;45231.88;5091266;28;20451;-75
2022/11/13 01:17:55;;;;;;;11.53;8.87;;;;;;;-143.84;93.40;45205.22;5090765;28;20446;-76
2022/11/13 01:20:23;;;;;;;10.40;9.30;;;;;;;-143.84;93.41;45226.16;5090582;28;20519;-75
2022/11/13 01:22:50;;;;;;;13.97;9.00;;;;;;;-143.84;92.88;45224.25;5090657;28;20443;-75
2022/11/13 01:25:17;;;;;;;14.50;9.30;;;;;;;-143.84;93.20;45228.06;5090431;28;20450;-75
2022/11/13 01:27:45;;;;;;;12.20;8.60;;;;;;;-143.84;93.19;45220.44;5090432;28;20461;-75
2022/11/13 01:30:12;;;;;;;9.63;8.60;;;;;;;-143.84;93.00;45233.78;5108901;28;20478;-75
2022/11/13 01:32:41;;;;;;;12.87;8.57;;;;;;;-143.84;92.57;45216.63;5110479;28;20438;-75
2022/11/13 01:35:08;;;;;;;11.53;9.00;;;;;;;-143.84;92.52;45218.53;5110736;28;20438;-75
2022/11/13 01:37:35;;;;;;;10.30;8.63;;;;;;;-143.84;92.15;45216.63;5110695;28;20468;-75
2022/11/13 01:40:02;;;;;;;10.33;8.60;;;;;;;-143.84;92.17;45222.34;5110777;28;20508;-75
2022/11/13 01:42:31;;;;;;;16.07;8.90;;;;;;;-143.84;92.14;45216.63;5109958;28;20513;-75
2022/11/13 01:45:01;;;;;;;14.20;9.13;;;;;;;-143.84;91.73;45216.63;5110475;28;20438;-75
2022/11/13 01:47:30;;;;;;;12.30;8.07;;;;;;;-143.84;91.82;45220.44;5109870;28;20444;-73
2022/11/13 01:50:02;;;;;;;10.10;9.10;;;;;;;-143.84;91.55;45229.97;5109461;28;20480;-74
2022/11/13 01:52:33;;;;;;;16.07;8.33;;;;;;;-143.84;91.57;45197.59;5110138;28;20454;-74
2022/11/13 01:55:04;;;;;;;11.10;9.20;;;;;;;-143.84;91.33;45228.06;5110365;28;20452;-75
2022/11/13 01:57:32;;;;;;;10.27;8.57;;;;;;;-143.84;91.42;45214.72;5093699;28;20497;-72
2022/11/13 02:00:05;;;;;;;14.50;8.30;;;;;;;-143.84;91.23;45220.44;5101717;28;20454;-74
2022/11/13 02:02:34;;;;;;;12.37;8.57;;;;;;;-143.84;91.10;45228.06;5110188;28;20448;-74
2022/11/13 02:05:03;;;;;;;8.97;8.07;;;;;;;-143.84;91.01;45178.56;5110167;28;20451;-74
2022/11/13 02:07:30;;;;;;;11.67;8.13;;;;;;;-143.84;90.62;45250.91;5092839;28;20439;-75
2022/11/13 02:10:00;;;;;;;10.50;8.13;;;;;;;-143.84;90.56;45229.97;5110416;28;20508;-72
2022/11/13 02:12:33;;;;;;;12.60;8.50;;;;;;;-143.84;90.24;45209.03;5110044;28;20560;-72
2022/11/13 02:15:02;;;;;;;16.50;10.40;;;;;;;-143.84;90.35;45224.25;5110270;28;20783;-74
2022/11/13 02:17:33;;;;;;;10.97;8.80;;;;;;;-143.84;90.18;45228.06;5109868;28;20961;-74
2022/11/13 02:20:03;;;;;;;16.73;8.63;;;;;;;-143.84;90.03;45218.53;5109813;28;20439;-74
2022/11/13 02:22:39;;;;;;;10.17;8.87;;;;;;;-143.84;90.41;45243.31;5110007;28;20890;-74
2022/11/13 02:25:10;;;;;;;10.43;8.33;;;;;;;-143.84;90.13;45250.91;5109581;28;20500;-74
2022/11/13 02:27:41;;;;;;;9.47;8.47;;;;;;;-143.84;90.57;45199.50;5109403;28;20457;-75
2022/11/13 02:30:14;;;;;;;11.23;8.60;;;;;;;-143.84;90.55;45214.72;5110292;28;20926;-75
2022/11/13 02:32:44;;;;;;;12.40;9.50;;;;;;;-143.84;90.92;45241.41;5109907;28;21013;-74
2022/11/13 02:35:12;;;;;;;13.53;8.77;;;;;;;-143.84;90.98;45220.44;5109363;28;20446;-74
2022/11/13 02:37:39;;;;;;;10.67;9.20;;;;;;;-143.84;90.76;45231.88;5110367;28;20549;-74
2022/11/13 02:40:09;;;;;;;11.40;9.00;;;;;;;-143.84;90.83;45243.31;5109158;28;21318;-74
2022/11/13 02:42:36;;;;;;;9.70;8.53;;;;;;;-143.84;90.70;45237.59;5109464;28;20443;-71
2022/11/13 02:45:04;;;;;;;15.67;8.97;;;;;;;-143.84;90.71;45220.44;5109238;28;20951;-72
2022/11/13 02:47:31;;;;;;;18.43;9.63;;;;;;;-143.84;89.87;45235.69;5101812;28;20524;-72
2022/11/13 02:49:59;;;;;;;8.67;7.27;;;;;;;-143.84;89.87;45239.50;5089225;28;20465;-72
2022/11/13 02:52:26;;;;;;;11.43;8.40;;;;;;;-143.84;89.47;45229.97;5089091;28;20450;-71
2022/11/13 02:54:53;;;;;;;14.13;8.50;;;;;;;-143.84;89.47;45228.06;5089038;28;20959;-71
2022/11/13 02:57:22;;;;;;;8.13;7.03;;;;;;;-143.84;89.26;45233.78;5088189;28;20446;-75
2022/11/13 02:59:49;;;;;;;8.73;7.83;;;;;;;-143.84;89.26;45243.31;5087637;28;20504;-74
2022/11/13 03:02:16;;;;;;;9.37;6.83;;;;;;;-143.84;88.76;45220.44;5088573;28;20442;-74
2022/11/13 03:04:43;;;;;;;13.80;8.10;;;;;;;-143.84;88.61;45224.25;5089229;28;20852;-75
2022/11/13 03:07:11;;;;;;;9.40;7.37;;;;;;;-143.84;88.21;45220.44;5089172;28;20478;-75
2022/11/13 03:09:38;;;;;;;9.17;7.10;;;;;;;-143.84;88.49;45224.25;5089152;28;20484;-74
2022/11/13 03:12:05;;;;;;;12.10;7.07;;;;;;;-143.84;88.14;45243.31;5089276;28;20533;-75
2022/11/13 03:14:34;;;;;;;7.60;6.80;;;;;;;-143.84;88.37;45262.34;5089015;28;20431;-75
2022/11/13 03:17:01;;;;;;;12.50;8.83;;;;;;;-143.84;88.22;45241.41;5087927;28;20504;-75
2022/11/13 03:19:28;;;;;;;13.03;7.97;;;;;;;-143.84;88.01;45250.91;5089170;28;20521;-75
2022/11/13 03:21:55;;;;;;;9.63;7.80;;;;;;;-143.84;87.83;45199.50;5089482;28;20451;-75
2022/11/13 03:24:23;;;;;;;17.30;8.03;;;;;;;-143.84;87.49;45233.78;5088562;28;20992;-74
2022/11/13 03:26:50;;;;;;;15.00;7.60;;;;;;;-143.84;87.47;45245.19;5088690;28;20457;-74
2022/11/13 03:29:17;;;;;;;16.07;7.07;;;;;;;-143.84;87.69;45262.34;5088641;28;20446;-73
2022/11/13 03:31:45;;;;;;;8.60;7.10;;;;;;;-143.84;87.59;45228.06;5088644;28;20484;-74
2022/11/13 03:34:12;;;;;;;10.47;8.50;;;;;;;-143.84;87.41;45237.59;5103371;28;20479;-74
2022/11/13 03:36:40;;;;;;;8.50;7.30;;;;;;;-143.84;87.13;45269.97;5109870;28;20952;-74
2022/11/13 03:39:07;;;;;;;11.83;7.70;;;;;;;-143.84;87.25;45224.25;5109773;28;20439;-75
2022/11/13 03:41:34;;;;;;;12.73;7.60;;;;;;;-143.84;86.94;45243.31;5109483;28;20535;-75
2022/11/13 03:44:01;;;;;;;8.63;7.20;;;;;;;-143.84;86.54;45203.31;5109082;28;20441;-75
2022/11/13 03:46:28;;;;;;;8.33;7.47;;;;;;;-143.84;86.59;45229.97;5109057;28;20439;-75
2022/11/13 03:48:57;;;;;;;10.93;6.93;;;;;;;-143.84;86.62;45243.31;5109030;28;20447;-75
2022/11/13 03:51:24;;;;;;;10.13;6.40;;;;;;;-143.84;86.42;45218.53;5108832;28;20472;-75
2022/11/13 03:53:51;;;;;;;9.03;6.40;;;;;;;-143.84;86.03;45226.16;5108159;28;21016;-75
2022/11/13 03:56:18;;;;;;;7.30;6.30;;;;;;;-143.84;85.83;45237.59;5108588;28;20503;-75
2022/11/13 03:58:45;;;;;;;7.93;7.00;;;;;;;-143.84;86.10;45264.25;5108667;28;20450;-75
2022/11/13 04:01:12;;;;;;;8.80;7.30;;;;;;;-143.84;85.72;45182.38;5108862;28;20700;-75
2022/11/13 04:03:39;;;;;;;8.27;6.97;;;;;;;-143.84;85.36;45224.25;5108831;28;20443;-75
2022/11/13 04:06:08;;;;;;;9.17;8.27;;;;;;;-143.84;85.06;45254.72;5108888;28;20850;-75
2022/11/13 04:08:35;;;;;;;13.20;7.97;;;;;;;-143.84;85.27;45235.69;5108912;28;20875;-75
2022/11/13 04:11:10;;;;;;;8.00;7.10;;;;;;;-143.84;84.94;45220.44;5110412;28;20499;-75
2022/11/13 04:13:37;;;;;;;7.33;6.63;;;;;;;-143.84;85.34;45233.78;5112568;28;20445;-75
2022/11/13 04:16:05;;;;;;;9.90;8.10;;;;;;;-143.84;85.15;45224.25;5112346;28;20442;-75
2022/11/13 04:18:32;;;;;;;12.63;7.30;;;;;;;-143.84;84.89;45224.25;5112411;28;20446;-75
2022/11/13 04:21:00;;;;;;;10.00;7.63;;;;;;;-143.84;85.22;45239.50;5112340;28;20452;-75
2022/11/13 04:23:29;;;;;;;7.13;6.37;;;;;;;-143.84;85.03;45228.06;5112434;28;20546;-75
2022/11/13 04:25:56;;;;;;;11.77;7.87;;;;;;;-143.84;85.11;45222.34;5111986;28;20444;-75
2022/11/13 04:28:24;;;;;;;9.43;7.47;;;;;;;-143.84;85.06;45241.41;5111483;28;20492;-75
2022/11/13 04:30:53;;;;;;;8.23;7.43;;;;;;;-143.84;85.00;45245.19;5111920;28;20475;-75
2022/11/13 04:33:20;;;;;;;15.87;7.80;;;;;;;-143.84;84.89;45216.63;5109459;28;20489;-75
2022/11/13 04:35:47;;;;;;;13.50;7.00;;;;;;;-143.84;84.95;45220.44;5111567;28;20446;-75
2022/11/13 04:38:15;;;;;;;7.63;6.77;;;;;;;-143.84;84.64;45228.06;5111924;28;20496;-76
2022/11/13 04:40:44;;;;;;;11.13;8.13;;;;;;;-143.84;84.49;45233.78;5112324;28;20856;-75
2022/11/13 04:43:10;;;;;;;7.50;6.77;;;;;;;-143.84;84.21;45245.19;5112118;28;20794;-75
2022/11/13 04:45:37;;;;;;;8.97;7.70;;;;;;;-143.84;83.67;45231.88;5112066;28;20441;-75
2022/11/13 04:48:05;;;;;;;9.13;8.00;;;;;;;-143.84;83.72;45228.06;5111810;28;20450;-75
2022/11/13 04:50:32;;;;;;;8.97;6.70;;;;;;;-143.84;84.06;45266.16;5111330;28;20541;-75
2022/11/13 04:52:59;;;;;;;7.77;7.07;;;;;;;-143.84;84.12;45249.00;5111916;28;20446;-75
2022/11/13 04:55:26;;;;;;;9.37;7.47;;;;;;;-143.84;83.80;45235.69;5092363;28;20454;-75
2022/11/13 04:57:55;;;;;;;10.40;7.23;;;;;;;-143.84;84.45;45222.34;5091347;28;20505;-75
2022/11/13 05:00:22;;;;;;;9.03;7.50;;;;;;;-143.84;84.79;45212.84;5099173;28;20975;-74
2022/11/13 05:02:50;;;;;;;9.13;7.57;;;;;;;-143.84;84.94;45228.06;5095034;28;20912;-75
2022/11/13 05:05:17;;;;;;;7.10;6.50;;;;;;;-143.84;85.13;45199.50;5090662;28;20440;-75
2022/11/13 05:07:44;;;;;;;17.50;7.03;;;;;;;-143.84;85.34;45235.69;5090838;28;20434;-73
2022/11/13 05:10:11;;;;;;;12.20;8.00;;;;;;;-143.84;85.18;45222.34;5090792;28;20442;-72
2022/11/13 05:12:38;;;;;;;14.53;7.80;;;;;;;-143.84;85.19;45214.72;5090596;28;20987;-74
2022/11/13 05:15:08;;;;;;;7.50;6.70;;;;;;;-143.84;85.55;45233.78;5090332;28;20441;-74
2022/11/13 05:17:35;;;;;;;10.00;7.60;;;;;;;-143.84;85.54;45235.69;5090487;28;20510;-74
2022/11/13 05:20:02;;;;;;;9.93;7.10;;;;;;;-143.84;85.52;45233.78;5073084;28;20482;-75
2022/11/13 05:22:29;;;;;;;10.57;6.57;;;;;;;-143.84;85.40;45250.91;5090165;28;21438;-76
2022/11/13 05:24:57;;;;;;;8.23;6.30;;;;;;;-143.84;85.23;45239.50;5090929;28;20443;-76
2022/11/13 05:27:24;;;;;;;8.83;6.60;;;;;;;-143.84;85.48;45224.25;5091462;28;21299;-75
2022/11/13 05:29:51;;;;;;;8.50;7.20;;;;;;;-143.84;85.66;45250.91;5090011;28;20553;-75
2022/11/13 05:32:19;;;;;;;8.53;6.67;;;;;;;-143.84;85.59;45231.88;5089747;28;20499;-75
2022/11/13 05:34:46;;;;;;;12.27;8.30;;;;;;;-143.84;85.49;45249.00;5109691;28;20543;-75
2022/11/13 05:37:14;;;;;;;11.13;7.50;;;;;;;-143.84;85.24;45245.19;5110373;28;20441;-76
2022/11/13 05:39:41;;;;;;;9.73;7.20;;;;;;;-143.84;85.09;45226.16;5111051;28;20433;-75
2022/11/13 05:42:08;;;;;;;6.97;6.23;;;;;;;-143.84;84.98;45245.19;5110648;28;20442;-76
2022/11/13 05:44:35;;;;;;;11.17;7.10;;;;;;;-143.84;85.00;45224.25;5110552;28;20441;-75
2022/11/13 05:47:02;;;;;;;13.50;7.40;;;;;;;-143.84;84.88;45239.50;5110725;28;20434;-76
2022/11/13 05:49:31;;;;;;;11.63;6.90;;;;;;;-143.84;84.74;45214.72;5110999;28;20437;-72
2022/11/13 05:51:58;;;;;;;11.10;7.03;;;;;;;-143.84;84.55;45207.13;5109972;28;20965;-71
2022/11/13 05:54:25;;;;;;;12.43;7.87;;;;;;;-143.84;84.33;45222.34;5109845;28;20425;-72
2022/11/13 05:56:52;;;;;;;9.90;7.33;;;;;;;-143.84;84.46;45203.31;5109770;28;20861;-72
2022/11/13 05:59:19;;;;;;;6.80;6.10;;;;;;;-143.84;84.17;45222.34;5109816;28;20507;-72
2022/11/13 06:01:46;;;;;;;10.27;7.43;;;;;;;-143.84;84.25;45228.06;5108240;28;20499;-72
2022/11/13 06:04:13;;;;;;;9.77;7.77;;;;;;;-143.84;84.74;45216.63;5090045;28;20434;-72
2022/11/13 06:06:42;;;;;;;10.27;7.70;;;;;;;-143.84;84.60;45214.72;5089146;28;20438;-72
2022/11/13 06:09:11;;;;;;;11.53;7.50;;;;;;;-143.84;84.69;45210.94;5092097;28;20449;-71
2022/11/13 06:11:39;;;;;;;9.37;6.90;;;;;;;-143.84;85.14;45207.13;5109532;28;20486;-71
2022/11/13 06:14:06;;;;;;;9.10;8.10;;;;;;;-143.84;84.89;45226.16;5109493;28;20501;-72
2022/11/13 06:16:36;;;;;;;9.97;8.03;;;;;;;-143.84;85.40;45216.63;5109352;28;20439;-72
2022/11/13 06:19:05;;;;;;;9.80;7.27;;;;;;;-143.84;85.68;45207.13;5109692;28;20490;-71
2022/11/13 06:21:34;;;;;;;10.23;7.03;;;;;;;-143.84;85.53;45216.63;5109176;28;20502;-71
2022/11/13 06:24:03;;;;;;;10.17;7.80;;;;;;;-143.84;84.83;45216.63;5109812;28;20821;-71
2022/11/13 06:26:32;;;;;;;13.93;7.90;;;;;;;-143.84;84.80;45210.94;5109507;28;20454;-71
2022/11/13 06:29:00;;;;;;;10.00;7.67;;;;;;;-143.84;84.48;45201.41;5109601;28;20496;-71
2022/11/13 06:31:29;;;;;;;11.37;9.17;;;;;;;-143.84;83.58;45207.13;5094846;28;20537;-72
2022/11/13 06:33:58;;;;;;;14.43;10.43;;;;;;;-143.84;82.70;45163.31;5100694;28;20863;-71
2022/11/13 06:36:27;;;;;;;18.53;10.40;;;;;;;-143.84;81.62;45216.63;5108359;28;20469;-69
2022/11/13 06:38:54;;;;;;;10.87;8.00;;;;;;;-143.84;79.69;45207.13;5108633;28;20447;-71
2022/11/13 06:41:25;;;;;;;7.67;6.37;;;;;;;-143.84;78.46;45188.06;5129333;27;20499;-71
2022/11/13 06:43:52;;;;;;;15.87;7.47;;;;;;;-143.84;76.66;45216.63;5129995;27;20457;-71
2022/11/13 06:46:20;;;;;;;7.70;6.90;;;;;;;-143.84;75.57;45214.72;5129989;27;20943;-70
2022/11/13 06:48:48;;;;;;;9.83;6.80;;;;;;;-143.84;74.30;45178.56;5129987;27;20452;-71
2022/11/13 06:51:17;;;;;;;6.83;6.07;;;;;;;-143.84;72.06;45159.50;5129515;27;20441;-71
2022/11/13 06:53:44;;;;;;;8.13;6.97;;;;;;;-143.84;72.55;45163.31;5129720;27;20441;-72
2022/11/13 06:56:12;;;;;;;7.60;6.67;;;;;;;-143.84;71.25;45174.75;5129735;27;20437;-72
2022/11/13 06:58:42;;;;;;;9.60;6.33;;;;;;;-143.84;70.81;45178.56;5120844;27;20447;-74
2022/11/13 07:01:11;;;;;;;8.70;6.97;;;;;;;-143.84;68.32;45170.94;5109293;28;21017;-72
2022/11/13 07:03:39;;;;;;;9.43;6.37;;;;;;;-143.84;66.52;45161.41;5109441;28;20439;-72
2022/11/13 07:06:08;;;;;;;7.27;6.10;;;;;;;-143.84;66.63;45169.03;5108825;28;20443;-72
2022/11/13 07:08:36;;;;;;;8.00;7.10;;;;;;;-143.84;65.93;45169.03;5109124;28;20437;-71
2022/11/13 07:11:03;;;;;;;8.23;6.10;;;;;;;-143.84;65.51;45172.84;5109058;28;20428;-72
2022/11/13 07:13:30;;;;;;;13.33;6.03;;;;;;;-143.84;64.55;45140.47;5108768;28;20478;-72
2022/11/13 07:16:03;;;;;;;8.20;5.73;;;;;;;-143.84;65.14;45157.59;5108868;28;20476;-72
2022/11/13 07:18:31;;;;;;;7.97;6.67;;;;;;;-143.84;64.66;45170.94;5108730;28;20451;-72
2022/11/13 07:20:59;;;;;;;9.17;6.20;;;;;;;-143.84;63.73;45170.94;5108762;28;20442;-72
2022/11/13 07:23:29;;;;;;;9.50;7.40;;;;;;;-143.84;62.17;45136.66;5109255;28;20431;-72
2022/11/13 07:25:56;;;;;;;9.27;6.43;;;;;;;-143.84;61.02;45151.91;5108615;28;20431;-72
2022/11/13 07:28:23;;;;;;;7.03;5.20;;;;;;;-143.84;60.46;45151.91;5107521;28;20961;-72
2022/11/13 07:30:50;;;;;;;6.40;5.80;;;;;;;-143.84;60.48;45138.56;5108019;28;20451;-72
2022/11/13 07:33:19;;;;;;;15.80;5.63;;;;;;;-143.84;60.62;45148.09;5108344;28;20555;-72
2022/11/13 07:35:46;;;;;;;6.33;5.73;;;;;;;-143.84;59.99;45144.28;5108092;28;20830;-72
2022/11/13 07:38:13;;;;;;;8.10;5.80;;;;;;;-143.84;56.64;45150.00;5108495;28;20443;-76
2022/11/13 07:40:40;;;;;;;7.27;5.57;;;;;;;-143.84;56.79;45148.09;5110970;28;20420;-77
2022/11/13 07:43:08;;;;;;;10.93;5.77;;;;;;;-143.84;57.81;45130.94;5109112;28;20435;-73
2022/11/13 07:45:40;;;;;;;6.57;5.90;;;;;;;-143.84;56.03;45144.28;5110007;28;20446;-73
2022/11/13 07:48:07;;;;;;;5.50;4.83;;;;;;;-143.84;56.90;45138.56;5111216;28;20516;-73
2022/11/13 07:50:37;;;;;;;8.40;5.17;;;;;;;-143.84;57.17;45140.47;5110886;28;20442;-73
2022/11/13 07:53:06;;;;;;;13.50;5.70;;;;;;;-143.84;56.89;45140.47;5109430;28;20477;-73
2022/11/13 07:55:37;;;;;;;5.20;4.70;;;;;;;-143.84;55.77;45121.44;5112543;28;20451;-75
2022/11/13 07:58:05;;;;;;;10.67;5.20;;;;;;;-143.84;53.59;45142.38;5103709;28;20457;-74
2022/11/13 08:00:35;;;;;;;7.73;6.20;;;;;;;-143.84;53.10;45119.53;5111288;28;20521;-73
2022/11/13 08:03:08;;;;;;;13.37;6.33;;;;;;;-143.84;50.62;45127.13;5111968;28;20449;-74
2022/11/13 08:05:37;;;;;;;6.87;5.73;;;;;;;-143.84;51.75;45136.66;5111399;28;21035;-73
2022/11/13 08:08:07;;;;;;;10.20;6.60;;;;;;;-143.84;50.65;45117.63;5112177;28;20447;-73
2022/11/13 08:10:36;;;;;;;11.00;5.50;;;;;;;-143.84;49.45;45121.44;5112100;28;20488;-74
2022/11/13 08:13:05;;;;;;;9.90;5.70;;;;;;;-143.84;49.03;45130.94;5112244;28;20478;-74
2022/11/13 08:15:33;;;;;;;8.30;5.80;;;;;;;-143.84;48.98;45157.59;5112617;28;20435;-74
2022/11/13 08:18:03;;;;;;;6.57;5.80;;;;;;;-143.84;50.22;45136.66;5111994;28;20932;-73
2022/11/13 08:20:31;;;;;;;8.63;6.07;;;;;;;-143.84;48.11;45125.22;5111405;28;20455;-73
2022/11/13 08:23:01;;;;;;;8.63;5.83;;;;;;;-143.84;48.30;45134.75;5111712;28;20447;-73
2022/11/13 08:25:29;;;;;;;13.73;5.50;;;;;;;-143.84;48.48;45111.91;5111890;28;20491;-73
2022/11/13 08:27:56;;;;;;;12.37;7.47;;;;;;;-143.84;48.03;45140.47;5112390;28;20439;-73
2022/11/13 08:30:25;;;;;;;9.67;7.20;;;;;;;-143.84;48.36;45115.72;5112215;28;20451;-75
2022/11/13 08:32:52;;;;;;;7.60;6.77;;;;;;;-143.84;47.45;45146.19;5111666;28;20538;-73
2022/11/13 08:35:20;;;;;;;6.30;5.30;;;;;;;-143.84;45.95;45113.81;5111282;28;20439;-74
2022/11/13 08:37:47;;;;;;;6.67;4.90;;;;;;;-143.84;45.81;45125.22;5112106;28;20441;-74
2022/11/13 08:40:16;;;;;;;5.50;5.00;;;;;;;-143.84;45.50;45129.03;5124763;27;20446;-73
2022/11/13 08:42:43;;;;;;;6.73;5.43;;;;;;;-143.84;44.61;45121.44;5132281;27;20438;-72
2022/11/13 08:45:11;;;;;;;6.50;4.50;;;;;;;-143.84;44.03;45110.00;5116187;27;20435;-74
2022/11/13 08:47:38;;;;;;;8.70;6.27;;;;;;;-143.84;43.93;45159.50;5111520;28;20500;-73
2022/11/13 08:50:07;;;;;;;4.90;4.60;;;;;;;-143.84;43.58;45098.56;5111632;28;20504;-73
2022/11/13 08:52:34;;;;;;;8.03;6.50;;;;;;;-143.84;44.34;45117.63;5111403;28;20487;-72
2022/11/13 08:55:01;;;;;;;5.73;5.23;;;;;;;-143.84;44.46;45106.19;5111985;28;20424;-73
2022/11/13 08:57:30;;;;;;;11.37;5.20;;;;;;;-143.84;43.19;45115.72;5110687;28;20439;-72
2022/11/13 08:59:57;;;;;;;4.80;4.40;;;;;;;-143.84;43.65;45108.09;5111123;28;20439;-72
2022/11/13 09:02:25;;;;;;;7.10;6.10;;;;;;;-143.84;44.30;45132.84;5111309;28;20786;-76
2022/11/13 09:04:53;;;;;;;6.43;5.20;;;;;;;-143.84;42.82;45117.63;5111451;28;20527;-74
2022/11/13 09:07:20;;;;;;;9.13;8.23;;;;;;;-143.84;43.38;45111.91;5112097;28;20504;-74
2022/11/13 09:09:47;;;;;;;4.63;4.23;;;;;;;-143.84;42.43;45117.63;5112001;28;20857;-73
2022/11/13 09:12:14;;;;;;;9.17;7.00;;;;;;;-143.84;42.77;45113.81;5112494;28;20482;-74
2022/11/13 09:14:43;;;;;;;9.43;6.03;;;;;;;-143.84;43.87;45117.63;5113074;28;20427;-75
2022/11/13 09:17:10;;;;;;;6.00;5.30;;;;;;;-143.84;41.79;45115.72;5111599;28;20920;-73
2022/11/13 09:19:37;;;;;;;5.90;5.30;;;;;;;-143.84;43.23;45108.09;5111088;28;20781;-73
2022/11/13 09:22:04;;;;;;;7.60;6.10;;;;;;;-143.84;42.00;45110.00;5110990;28;20846;-73
2022/11/13 09:24:31;;;;;;;11.70;5.43;;;;;;;-143.84;42.69;45121.44;5111000;28;20850;-74
2022/11/13 09:26:58;;;;;;;7.40;6.00;;;;;;;-143.84;42.03;45094.78;5110124;28;20843;-73
2022/11/13 09:29:27;;;;;;;9.90;5.93;;;;;;;-143.84;41.82;45115.72;5111006;28;20432;-74
2022/11/13 09:31:56;;;;;;;12.07;8.10;;;;;;;-143.84;42.78;45127.13;5110813;28;20484;-74
2022/11/13 09:34:25;;;;;;;19.43;15.30;;;;;;;-143.84;42.67;45108.09;5109646;28;20478;-74
2022/11/13 09:36:53;;;;;;;15.23;11.90;;;;;;;-143.84;43.13;45104.28;5113518;28;20443;-79
2022/11/13 09:39:20;;;;;;;31.10;22.20;;;;;;;-143.84;42.66;45106.19;5112614;28;21001;-77
2022/11/13 09:41:51;;;;;;;12.57;11.17;;;;;;;-143.84;43.57;45115.72;5111030;28;20571;-74
2022/11/13 09:44:24;;;;;;;14.20;9.73;;;;;;;-143.84;43.25;45090.97;5110885;28;20508;-71
2022/11/13 09:46:59;;;;;;;14.87;11.60;;;;;;;-143.84;43.67;45136.66;5112162;28;20439;-71
2022/11/13 09:49:29;;;;;;;11.50;10.17;;;;;;;-143.84;43.86;45110.00;5112165;28;20873;-75
2022/11/13 09:51:59;;;;;;;16.03;11.13;;;;;;;-143.84;43.84;45125.22;5110938;28;20435;-72
2022/11/13 09:54:26;;;;;;;12.63;8.40;;;;;;;-143.84;44.68;45113.81;5109956;28;21248;-72
2022/11/13 09:57:02;;;;;;;10.63;9.27;;;;;;;-143.84;45.55;45125.22;5110503;28;20443;-73
2022/11/13 09:59:35;;;;;;;8.93;8.03;;;;;;;-143.84;46.68;45094.78;5110135;28;20431;-73
2022/11/13 10:02:17;;;;;;;12.07;7.47;;;;;;;-143.84;48.37;45110.00;5109048;28;20471;-73
2022/11/13 10:04:56;;;;;;;16.43;9.60;;;;;;;-143.84;49.37;45148.09;5108714;28;20520;-73
2022/11/13 10:07:33;;;;;;;11.23;7.90;;;;;;;-143.84;50.98;45138.56;5103188;28;20448;-73
2022/11/13 10:10:44;;;;;;;11.83;9.73;;;;;;;-143.84;51.16;45155.69;5106994;28;20435;-74
2022/11/13 10:13:14;;;;;;;17.00;13.40;;;;;;;-143.84;52.93;45123.34;5080789;28;20833;-71
2022/11/13 10:15:44;;;;;;;12.80;7.07;;;;;;;-143.84;52.83;45140.47;5107057;28;20438;-73
2022/11/13 10:18:17;;;;;;;9.80;8.20;;;;;;;-143.84;51.91;45136.66;5107332;28;20443;-73
2022/11/13 10:20:48;;;;;;;8.67;7.77;;;;;;;-143.84;53.38;45159.50;5107884;28;20968;-73
2022/11/13 10:23:20;;;;;;;21.83;10.43;;;;;;;-143.84;53.21;45150.00;5108203;28;20444;-73
2022/11/13 10:25:50;;;;;;;10.30;8.57;;;;;;;-143.84;53.74;45159.50;5110527;28;20443;-74
2022/11/13 10:28:19;;;;;;;12.37;8.90;;;;;;;-143.84;55.01;45129.03;5099068;28;20882;-72
2022/11/13 10:31:38;;;;;;;9.13;8.10;;;;;;;-143.84;53.50;45134.75;5105186;28;20784;-75
2022/11/13 10:34:08;;;;;;;10.77;9.77;;;;;;;-143.84;53.69;45148.09;5109988;28;20498;-75
2022/11/13 10:36:44;;;;;;;12.30;8.70;;;;;;;-143.84;54.35;45159.50;5109487;28;20446;-76
2022/11/13 10:39:13;;;;;;;10.50;9.07;;;;;;;-143.84;56.17;45151.91;5111328;27;20443;-75
2022/11/13 10:41:47;;;;;;;10.37;9.00;;;;;;;-143.84;55.54;45140.47;5111950;28;20438;-75
2022/11/13 10:44:25;;;;;;;10.80;8.20;;;;;;;-143.84;56.05;45132.84;5111280;28;20858;-70
2022/11/13 10:47:03;;;;;;;20.63;10.70;;;;;;;-143.84;58.80;45155.69;5107691;28;20812;-74
2022/11/13 10:49:32;;;;;;;22.67;12.80;;;;;;;-143.84;60.49;45174.75;5109092;28;20805;-70
2022/11/13 10:52:01;;;;;;;22.10;14.20;;;;;;;-143.84;60.83;45151.91;5110321;28;20525;-74
2022/11/13 10:54:30;;;;;;;19.00;14.13;;;;;;;-143.84;61.07;45159.50;5109080;28;20906;-74
2022/11/13 10:56:59;;;;;;;17.43;12.63;;;;;;;-143.84;61.33;45151.91;5111544;28;20451;-74
2022/11/13 10:59:37;;;;;;;23.53;11.73;;;;;;;-143.84;60.48;45150.00;5111025;28;20446;-75
2022/11/13 11:02:16;;;;;;;15.17;10.30;;;;;;;-143.84;60.95;45170.94;5107193;28;20828;-74
2022/11/13 11:04:45;;;;;;;18.60;12.60;;;;;;;-143.84;60.00;45148.09;5109915;28;20479;-74
2022/11/13 11:07:16;;;;;;;22.97;15.20;;;;;;;-143.84;60.50;45157.59;5109985;28;20512;-74
2022/11/13 11:09:45;;;;;;;21.33;15.60;;;;;;;-143.84;58.91;45155.69;5110505;28;20458;-75
2022/11/13 11:12:17;;;;;;;27.33;19.03;;;;;;;-143.84;60.27;45157.59;5108912;28;20451;-76
2022/11/13 11:15:06;;;;;;;22.98;18.52;;;;;;;-143.84;61.39;45170.94;5108924;28;20538;-76
2022/11/13 11:17:38;;;;;;;18.30;12.80;;;;;;;-143.84;60.71;45165.22;5107098;28;20212;-76
2022/11/13 11:20:19;;;;;;;14.30;10.90;;;;;;;-143.84;61.69;45161.41;5112275;28;20446;-76